sensor_id;sensor_type;location;lat;lon;timestamp;pressure;altitude;pressure_sealevel;temperature;humidity
53689;BME280;39583;54.682;30.662;2022-07-23T05:44:20;99657.19;;;23.12;65.97
53689;BME280;39583;54.682;30.662;2022-07-23T05:46:47;99656.00;;;23.37;65.76
53689;BME280;39583;54.682;30.662;2022-07-23T05:49:18;99661.22;;;23.71;65.48
53689;BME280;39583;54.682;30.662;2022-07-23T05:51:57;99650.91;;;24.09;64.65
53689;BME280;39583;54.682;30.662;2022-07-23T05:54:34;99653.75;;;24.46;64.02
53689;BME280;39583;54.682;30.662;2022-07-23T05:57:02;99652.63;;;24.60;63.23
53689;BME280;39583;54.682;30.662;2022-07-23T05:59:29;99652.41;;;24.70;62.96
53689;BME280;39583;54.682;30.662;2022-07-23T06:01:56;99648.31;;;24.82;62.56
53689;BME280;39583;54.682;30.662;2022-07-23T06:04:22;99651.47;;;24.89;62.10
53689;BME280;39583;54.682;30.662;2022-07-23T06:07:05;99639.19;;;24.95;61.04
53689;BME280;39583;54.682;30.662;2022-07-23T06:09:31;99642.78;;;24.95;60.39
53689;BME280;39583;54.682;30.662;2022-07-23T06:11:58;99650.53;;;25.07;60.76
53689;BME280;39583;54.682;30.662;2022-07-23T06:14:24;99652.53;;;25.15;60.20
53689;BME280;39583;54.682;30.662;2022-07-23T06:16:54;99645.09;;;25.16;60.02
53689;BME280;39583;54.682;30.662;2022-07-23T06:19:21;99645.91;;;25.16;59.95
53689;BME280;39583;54.682;30.662;2022-07-23T06:21:48;99644.97;;;25.21;59.01
53689;BME280;39583;54.682;30.662;2022-07-23T06:24:16;99650.88;;;25.28;57.93
53689;BME280;39583;54.682;30.662;2022-07-23T06:26:43;99656.94;;;25.16;57.92
53689;BME280;39583;54.682;30.662;2022-07-23T06:29:10;99654.34;;;25.20;57.30
53689;BME280;39583;54.682;30.662;2022-07-23T06:31:36;99650.78;;;25.19;58.19
53689;BME280;39583;54.682;30.662;2022-07-23T06:34:02;99653.53;;;25.19;57.22
53689;BME280;39583;54.682;30.662;2022-07-23T06:36:29;99648.44;;;25.26;56.58
53689;BME280;39583;54.682;30.662;2022-07-23T06:38:55;99651.47;;;25.25;57.41
53689;BME280;39583;54.682;30.662;2022-07-23T06:41:21;99644.22;;;25.29;56.49
53689;BME280;39583;54.682;30.662;2022-07-23T06:43:50;99642.91;;;25.26;55.42
53689;BME280;39583;54.682;30.662;2022-07-23T06:46:21;99647.47;;;25.31;55.39
53689;BME280;39583;54.682;30.662;2022-07-23T06:48:49;99644.22;;;25.29;54.99
53689;BME280;39583;54.682;30.662;2022-07-23T06:51:15;99646.66;;;25.31;55.21
53689;BME280;39583;54.682;30.662;2022-07-23T06:53:41;99643.34;;;25.20;54.91
53689;BME280;39583;54.682;30.662;2022-07-23T06:56:09;99646.91;;;25.20;54.87
53689;BME280;39583;54.682;30.662;2022-07-23T06:58:35;99653.00;;;25.31;55.72
53689;BME280;39583;54.682;30.662;2022-07-23T07:01:01;99644.09;;;25.34;55.20
53689;BME280;39583;54.682;30.662;2022-07-23T07:03:28;99647.41;;;25.45;53.98
53689;BME280;39583;54.682;30.662;2022-07-23T07:05:54;99640.09;;;25.40;55.02
53689;BME280;39583;54.682;30.662;2022-07-23T07:08:23;99630.31;;;25.34;55.00
53689;BME280;39583;54.682;30.662;2022-07-23T07:10:50;99627.44;;;25.39;54.42
53689;BME280;39583;54.682;30.662;2022-07-23T07:13:16;99632.34;;;25.51;53.22
53689;BME280;39583;54.682;30.662;2022-07-23T07:15:42;99627.88;;;25.55;53.48
53689;BME280;39583;54.682;30.662;2022-07-23T07:18:09;99633.00;;;25.48;54.15
53689;BME280;39583;54.682;30.662;2022-07-23T07:20:35;99639.69;;;25.55;54.30
53689;BME280;39583;54.682;30.662;2022-07-23T07:23:02;99641.38;;;25.65;54.29
53689;BME280;39583;54.682;30.662;2022-07-23T07:25:28;99634.63;;;25.71;53.42
53689;BME280;39583;54.682;30.662;2022-07-23T07:27:54;99641.38;;;25.65;52.02
53689;BME280;39583;54.682;30.662;2022-07-23T07:30:21;99637.06;;;25.50;52.02
53689;BME280;39583;54.682;30.662;2022-07-23T07:32:48;99632.94;;;25.39;51.78
53689;BME280;39583;54.682;30.662;2022-07-23T07:35:14;99642.53;;;25.42;51.58
53689;BME280;39583;54.682;30.662;2022-07-23T07:37:40;99637.03;;;25.42;51.04
53689;BME280;39583;54.682;30.662;2022-07-23T07:40:07;99639.63;;;25.47;51.70
53689;BME280;39583;54.682;30.662;2022-07-23T07:42:34;99639.56;;;25.61;50.49
53689;BME280;39583;54.682;30.662;2022-07-23T07:45:00;99631.75;;;25.54;50.51
53689;BME280;39583;54.682;30.662;2022-07-23T07:47:27;99642.50;;;25.64;51.12
53689;BME280;39583;54.682;30.662;2022-07-23T07:49:53;99644.59;;;25.58;49.96
53689;BME280;39583;54.682;30.662;2022-07-23T07:52:20;99640.06;;;25.63;50.52
53689;BME280;39583;54.682;30.662;2022-07-23T07:54:46;99618.09;;;25.71;50.62
53689;BME280;39583;54.682;30.662;2022-07-23T07:57:12;99627.25;;;25.89;50.47
53689;BME280;39583;54.682;30.662;2022-07-23T07:59:38;99624.88;;;25.96;49.23
53689;BME280;39583;54.682;30.662;2022-07-23T08:02:05;99623.56;;;26.02;50.33
53689;BME280;39583;54.682;30.662;2022-07-23T08:04:31;99620.53;;;26.12;49.45
53689;BME280;39583;54.682;30.662;2022-07-23T08:06:58;99624.00;;;26.18;50.95
53689;BME280;39583;54.682;30.662;2022-07-23T08:09:24;99623.50;;;26.25;49.05
53689;BME280;39583;54.682;30.662;2022-07-23T08:11:50;99617.47;;;26.14;48.87
53689;BME280;39583;54.682;30.662;2022-07-23T08:14:18;99620.00;;;25.93;47.99
53689;BME280;39583;54.682;30.662;2022-07-23T08:16:44;99624.78;;;25.79;47.64
53689;BME280;39583;54.682;30.662;2022-07-23T08:19:11;99630.09;;;25.75;46.71
53689;BME280;39583;54.682;30.662;2022-07-23T08:21:37;99630.00;;;25.80;46.52
53689;BME280;39583;54.682;30.662;2022-07-23T08:24:04;99625.59;;;25.79;46.96
53689;BME280;39583;54.682;30.662;2022-07-23T08:26:30;99626.59;;;25.83;46.92
53689;BME280;39583;54.682;30.662;2022-07-23T08:28:56;99624.16;;;25.91;46.78
53689;BME280;39583;54.682;30.662;2022-07-23T08:31:23;99626.28;;;25.85;46.32
53689;BME280;39583;54.682;30.662;2022-07-23T08:33:49;99627.41;;;25.84;45.78
53689;BME280;39583;54.682;30.662;2022-07-23T08:36:16;99625.63;;;25.88;46.85
53689;BME280;39583;54.682;30.662;2022-07-23T08:38:42;99629.09;;;26.02;46.50
53689;BME280;39583;54.682;30.662;2022-07-23T08:41:09;99626.88;;;26.13;46.42
53689;BME280;39583;54.682;30.662;2022-07-23T08:43:35;99606.22;;;26.02;45.60
53689;BME280;39583;54.682;30.662;2022-07-23T08:46:03;99623.63;;;26.11;45.31
53689;BME280;39583;54.682;30.662;2022-07-23T08:48:33;99621.84;;;26.06;46.02
53689;BME280;39583;54.682;30.662;2022-07-23T08:51:01;99614.75;;;26.23;46.22
53689;BME280;39583;54.682;30.662;2022-07-23T08:53:30;99620.78;;;26.33;46.61
53689;BME280;39583;54.682;30.662;2022-07-23T08:55:59;99619.56;;;26.48;47.24
53689;BME280;39583;54.682;30.662;2022-07-23T08:58:27;99619.41;;;26.62;47.51
53689;BME280;39583;54.682;30.662;2022-07-23T09:00:54;99617.47;;;26.71;47.62
53689;BME280;39583;54.682;30.662;2022-07-23T09:03:24;99610.66;;;26.86;47.23
53689;BME280;39583;54.682;30.662;2022-07-23T09:05:53;99611.31;;;26.91;47.47
53689;BME280;39583;54.682;30.662;2022-07-23T09:08:25;99606.59;;;26.92;45.97
53689;BME280;39583;54.682;30.662;2022-07-23T09:11:00;99604.66;;;26.84;45.67
53689;BME280;39583;54.682;30.662;2022-07-23T09:13:53;99615.69;;;26.92;46.73
53689;BME280;39583;54.682;30.662;2022-07-23T09:16:25;99583.53;;;26.88;45.18
53689;BME280;39583;54.682;30.662;2022-07-23T09:19:04;99593.09;;;26.90;45.17
53689;BME280;39583;54.682;30.662;2022-07-23T09:21:38;99582.72;;;27.04;46.05
53689;BME280;39583;54.682;30.662;2022-07-23T09:24:09;99588.41;;;27.17;46.84
53689;BME280;39583;54.682;30.662;2022-07-23T09:26:40;99590.19;;;27.30;45.83
53689;BME280;39583;54.682;30.662;2022-07-23T09:29:08;99582.38;;;27.32;45.92
53689;BME280;39583;54.682;30.662;2022-07-23T09:31:43;99583.97;;;27.42;45.25
53689;BME280;39583;54.682;30.662;2022-07-23T09:34:21;99586.25;;;27.48;45.08
53689;BME280;39583;54.682;30.662;2022-07-23T09:36:49;99583.16;;;27.41;45.20
53689;BME280;39583;54.682;30.662;2022-07-23T09:39:26;99587.13;;;27.14;46.71
53689;BME280;39583;54.682;30.662;2022-07-23T09:41:53;99581.44;;;27.11;46.76
53689;BME280;39583;54.682;30.662;2022-07-23T09:44:20;99580.06;;;27.51;46.66
53689;BME280;39583;54.682;30.662;2022-07-23T09:46:57;99568.59;;;27.79;45.26
53689;BME280;39583;54.682;30.662;2022-07-23T09:49:24;99575.19;;;27.48;44.85
53689;BME280;39583;54.682;30.662;2022-07-23T09:51:56;99576.53;;;27.25;44.52
53689;BME280;39583;54.682;30.662;2022-07-23T09:57:08;99573.59;;;27.21;45.69
53689;BME280;39583;54.682;30.662;2022-07-23T09:59:38;99566.47;;;27.03;44.81
53689;BME280;39583;54.682;30.662;2022-07-23T10:02:06;99561.91;;;27.16;45.65
53689;BME280;39583;54.682;30.662;2022-07-23T10:04:43;99564.34;;;27.35;45.16
53689;BME280;39583;54.682;30.662;2022-07-23T10:07:17;99556.47;;;27.54;45.45
53689;BME280;39583;54.682;30.662;2022-07-23T10:10:06;99557.56;;;27.70;44.88
53689;BME280;39583;54.682;30.662;2022-07-23T10:12:46;99561.94;;;27.80;45.00
53689;BME280;39583;54.682;30.662;2022-07-23T10:15:31;99555.88;;;27.86;45.66
53689;BME280;39583;54.682;30.662;2022-07-23T10:17:58;99543.34;;;27.89;44.85
53689;BME280;39583;54.682;30.662;2022-07-23T10:20:24;99543.59;;;28.05;44.69
53689;BME280;39583;54.682;30.662;2022-07-23T10:22:55;99546.22;;;28.01;45.05
53689;BME280;39583;54.682;30.662;2022-07-23T10:32:02;99539.00;;;28.09;44.00
53689;BME280;39583;54.682;30.662;2022-07-23T10:37:21;99537.28;;;27.96;45.32
53689;BME280;39583;54.682;30.662;2022-07-23T10:40:17;99528.47;;;28.02;45.07
53689;BME280;39583;54.682;30.662;2022-07-23T10:42:45;99529.97;;;28.20;44.90
53689;BME280;39583;54.682;30.662;2022-07-23T10:45:29;99528.00;;;28.21;44.55
53689;BME280;39583;54.682;30.662;2022-07-23T10:48:17;99530.28;;;28.48;43.64
53689;BME280;39583;54.682;30.662;2022-07-23T10:51:08;99538.94;;;28.68;43.43
53689;BME280;39583;54.682;30.662;2022-07-23T10:53:54;99535.16;;;28.72;43.60
53689;BME280;39583;54.682;30.662;2022-07-23T10:59:24;99536.09;;;28.76;43.41
53689;BME280;39583;54.682;30.662;2022-07-23T11:01:51;99522.50;;;28.84;42.69
53689;BME280;39583;54.682;30.662;2022-07-23T11:04:17;99523.94;;;28.90;43.19
53689;BME280;39583;54.682;30.662;2022-07-23T11:09:28;99518.00;;;28.79;42.71
53689;BME280;39583;54.682;30.662;2022-07-23T11:15:03;99518.00;;;28.79;43.16
53689;BME280;39583;54.682;30.662;2022-07-23T11:17:32;99512.19;;;28.93;42.81
53689;BME280;39583;54.682;30.662;2022-07-23T11:25:11;99511.50;;;28.33;42.22
53689;BME280;39583;54.682;30.662;2022-07-23T11:27:41;99511.53;;;28.25;43.51
53689;BME280;39583;54.682;30.662;2022-07-23T11:30:09;99501.38;;;28.37;43.88
53689;BME280;39583;54.682;30.662;2022-07-23T11:32:40;99508.28;;;28.52;43.25
53689;BME280;39583;54.682;30.662;2022-07-23T11:35:27;99495.69;;;28.34;43.73
53689;BME280;39583;54.682;30.662;2022-07-23T11:38:03;99502.75;;;28.52;43.94
53689;BME280;39583;54.682;30.662;2022-07-23T11:40:30;99502.06;;;28.55;41.99
53689;BME280;39583;54.682;30.662;2022-07-23T11:43:00;99493.00;;;28.46;41.64
53689;BME280;39583;54.682;30.662;2022-07-23T11:45:35;99504.47;;;28.36;41.58
53689;BME280;39583;54.682;30.662;2022-07-23T11:48:06;99508.22;;;28.40;40.72
53689;BME280;39583;54.682;30.662;2022-07-23T11:50:33;99510.50;;;28.38;42.58
53689;BME280;39583;54.682;30.662;2022-07-23T11:53:00;99503.88;;;28.51;42.83
53689;BME280;39583;54.682;30.662;2022-07-23T11:55:26;99496.78;;;28.62;41.92
53689;BME280;39583;54.682;30.662;2022-07-23T11:57:55;99499.53;;;28.62;41.77
53689;BME280;39583;54.682;30.662;2022-07-23T12:00:27;99497.94;;;28.61;42.46
53689;BME280;39583;54.682;30.662;2022-07-23T12:03:00;99497.59;;;28.63;41.96
53689;BME280;39583;54.682;30.662;2022-07-23T12:05:32;99490.91;;;28.64;42.36
53689;BME280;39583;54.682;30.662;2022-07-23T12:08:00;99489.66;;;28.73;42.97
53689;BME280;39583;54.682;30.662;2022-07-23T12:10:42;99481.63;;;28.81;42.96
53689;BME280;39583;54.682;30.662;2022-07-23T12:13:12;99487.44;;;28.88;41.81
53689;BME280;39583;54.682;30.662;2022-07-23T12:15:44;99485.28;;;28.93;42.13
53689;BME280;39583;54.682;30.662;2022-07-23T12:18:14;99486.75;;;28.91;41.58
53689;BME280;39583;54.682;30.662;2022-07-23T12:20:49;99484.00;;;28.91;42.39
53689;BME280;39583;54.682;30.662;2022-07-23T12:23:18;99485.13;;;28.90;42.80
53689;BME280;39583;54.682;30.662;2022-07-23T12:25:45;99481.38;;;28.94;41.87
53689;BME280;39583;54.682;30.662;2022-07-23T12:28:15;99480.22;;;28.74;42.94
53689;BME280;39583;54.682;30.662;2022-07-23T12:33:11;99480.44;;;28.69;44.35
53689;BME280;39583;54.682;30.662;2022-07-23T12:35:40;99471.94;;;28.87;43.29
53689;BME280;39583;54.682;30.662;2022-07-23T12:38:09;99472.25;;;28.94;43.15
53689;BME280;39583;54.682;30.662;2022-07-23T12:40:48;99467.28;;;28.99;42.56
53689;BME280;39583;54.682;30.662;2022-07-23T12:46:16;99470.44;;;29.10;42.38
53689;BME280;39583;54.682;30.662;2022-07-23T12:51:25;99454.88;;;29.30;42.26
53689;BME280;39583;54.682;30.662;2022-07-23T12:53:57;99456.63;;;29.34;40.26
53689;BME280;39583;54.682;30.662;2022-07-23T12:56:29;99454.63;;;29.23;40.69
53689;BME280;39583;54.682;30.662;2022-07-23T13:01:36;99456.81;;;29.29;40.73
53689;BME280;39583;54.682;30.662;2022-07-23T13:04:11;99450.47;;;29.29;41.71
53689;BME280;39583;54.682;30.662;2022-07-23T13:06:45;99452.69;;;29.35;40.87
53689;BME280;39583;54.682;30.662;2022-07-23T13:09:19;99449.16;;;29.47;41.37
53689;BME280;39583;54.682;30.662;2022-07-23T13:11:47;99448.09;;;29.52;41.63
53689;BME280;39583;54.682;30.662;2022-07-23T13:14:14;99443.72;;;29.51;41.26
53689;BME280;39583;54.682;30.662;2022-07-23T13:16:42;99444.16;;;29.53;40.69
53689;BME280;39583;54.682;30.662;2022-07-23T13:19:09;99438.63;;;29.65;42.27
53689;BME280;39583;54.682;30.662;2022-07-23T13:21:35;99439.06;;;29.79;41.24
53689;BME280;39583;54.682;30.662;2022-07-23T13:24:01;99432.25;;;29.89;40.93
53689;BME280;39583;54.682;30.662;2022-07-23T13:26:28;99431.09;;;29.90;40.79
53689;BME280;39583;54.682;30.662;2022-07-23T13:28:54;99427.84;;;29.76;41.41
53689;BME280;39583;54.682;30.662;2022-07-23T13:31:20;99417.56;;;29.52;40.92
53689;BME280;39583;54.682;30.662;2022-07-23T13:33:47;99433.53;;;29.67;42.13
53689;BME280;39583;54.682;30.662;2022-07-23T13:36:13;99422.19;;;29.84;42.31
53689;BME280;39583;54.682;30.662;2022-07-23T13:38:40;99424.25;;;30.12;41.91
53689;BME280;39583;54.682;30.662;2022-07-23T13:41:06;99424.66;;;30.26;39.97
53689;BME280;39583;54.682;30.662;2022-07-23T13:43:33;99423.34;;;29.95;39.30
53689;BME280;39583;54.682;30.662;2022-07-23T13:46:00;99427.75;;;29.72;39.51
53689;BME280;39583;54.682;30.662;2022-07-23T13:48:26;99411.69;;;29.53;39.24
53689;BME280;39583;54.682;30.662;2022-07-23T13:50:54;99413.19;;;29.51;39.33
53689;BME280;39583;54.682;30.662;2022-07-23T13:53:23;99419.44;;;29.60;40.25
53689;BME280;39583;54.682;30.662;2022-07-23T13:55:51;99415.50;;;29.61;39.88
53689;BME280;39583;54.682;30.662;2022-07-23T13:58:18;99412.47;;;29.66;40.51
53689;BME280;39583;54.682;30.662;2022-07-23T14:00:47;99408.88;;;29.78;40.93
53689;BME280;39583;54.682;30.662;2022-07-23T14:03:16;99406.13;;;29.78;39.74
53689;BME280;39583;54.682;30.662;2022-07-23T14:05:42;99409.59;;;29.75;39.51
53689;BME280;39583;54.682;30.662;2022-07-23T14:08:09;99403.81;;;29.67;39.14
53689;BME280;39583;54.682;30.662;2022-07-23T14:10:35;99401.84;;;29.56;39.13
53689;BME280;39583;54.682;30.662;2022-07-23T14:13:03;99389.81;;;29.40;39.04
53689;BME280;39583;54.682;30.662;2022-07-23T14:15:30;99393.31;;;29.49;39.67
53689;BME280;39583;54.682;30.662;2022-07-23T14:17:57;99395.38;;;29.52;39.58
53689;BME280;39583;54.682;30.662;2022-07-23T14:20:24;99390.75;;;29.56;39.38
53689;BME280;39583;54.682;30.662;2022-07-23T14:22:51;99378.28;;;29.50;39.38
53689;BME280;39583;54.682;30.662;2022-07-23T14:25:18;99373.41;;;29.34;39.61
53689;BME280;39583;54.682;30.662;2022-07-23T14:27:45;99382.88;;;29.33;39.69
53689;BME280;39583;54.682;30.662;2022-07-23T14:30:12;99386.00;;;29.44;39.77
53689;BME280;39583;54.682;30.662;2022-07-23T14:32:41;99378.41;;;29.53;40.35
53689;BME280;39583;54.682;30.662;2022-07-23T14:35:07;99382.78;;;29.54;40.05
53689;BME280;39583;54.682;30.662;2022-07-23T14:37:34;99374.94;;;29.56;40.86
53689;BME280;39583;54.682;30.662;2022-07-23T14:40:00;99378.72;;;29.64;42.09
53689;BME280;39583;54.682;30.662;2022-07-23T14:42:26;99373.78;;;29.70;41.86
53689;BME280;39583;54.682;30.662;2022-07-23T14:44:53;99359.91;;;29.70;41.74
53689;BME280;39583;54.682;30.662;2022-07-23T14:47:19;99360.81;;;29.61;41.43
53689;BME280;39583;54.682;30.662;2022-07-23T14:49:45;99367.88;;;29.59;41.46
53689;BME280;39583;54.682;30.662;2022-07-23T14:52:11;99366.91;;;29.43;40.61
53689;BME280;39583;54.682;30.662;2022-07-23T14:54:37;99357.94;;;29.21;41.16
53689;BME280;39583;54.682;30.662;2022-07-23T14:57:04;99360.69;;;28.97;41.81
53689;BME280;39583;54.682;30.662;2022-07-23T14:59:30;99361.03;;;28.95;41.48
53689;BME280;39583;54.682;30.662;2022-07-23T15:01:57;99355.84;;;29.06;41.70
53689;BME280;39583;54.682;30.662;2022-07-23T15:04:24;99355.06;;;29.18;41.89
53689;BME280;39583;54.682;30.662;2022-07-23T15:06:51;99347.75;;;29.25;42.43
53689;BME280;39583;54.682;30.662;2022-07-23T15:09:17;99344.53;;;29.23;42.13
53689;BME280;39583;54.682;30.662;2022-07-23T15:11:44;99354.69;;;29.31;42.87
53689;BME280;39583;54.682;30.662;2022-07-23T15:14:10;99356.66;;;29.31;41.80
53689;BME280;39583;54.682;30.662;2022-07-23T15:16:36;99338.63;;;29.25;42.29
53689;BME280;39583;54.682;30.662;2022-07-23T15:19:03;99341.50;;;29.28;43.18
53689;BME280;39583;54.682;30.662;2022-07-23T15:21:30;99353.91;;;29.31;43.66
53689;BME280;39583;54.682;30.662;2022-07-23T15:23:57;99349.03;;;29.28;42.34
53689;BME280;39583;54.682;30.662;2022-07-23T15:26:27;99347.06;;;29.16;42.06
53689;BME280;39583;54.682;30.662;2022-07-23T15:28:54;99352.03;;;29.11;42.92
53689;BME280;39583;54.682;30.662;2022-07-23T15:31:21;99345.09;;;29.17;43.15
53689;BME280;39583;54.682;30.662;2022-07-23T15:33:47;99350.78;;;29.20;43.44
53689;BME280;39583;54.682;30.662;2022-07-23T15:36:14;99349.97;;;29.32;43.35
53689;BME280;39583;54.682;30.662;2022-07-23T15:38:40;99353.66;;;29.60;42.36
53689;BME280;39583;54.682;30.662;2022-07-23T15:41:07;99357.25;;;30.13;42.23
53689;BME280;39583;54.682;30.662;2022-07-23T15:43:33;99346.84;;;30.82;40.31
53689;BME280;39583;54.682;30.662;2022-07-23T15:45:59;99359.84;;;31.57;39.10
53689;BME280;39583;54.682;30.662;2022-07-23T15:48:25;99349.44;;;32.27;38.24
53689;BME280;39583;54.682;30.662;2022-07-23T15:50:51;99342.44;;;32.95;37.13
53689;BME280;39583;54.682;30.662;2022-07-23T15:53:18;99346.78;;;33.42;36.50
53689;BME280;39583;54.682;30.662;2022-07-23T15:55:45;99324.00;;;33.66;36.33
53689;BME280;39583;54.682;30.662;2022-07-23T15:58:12;99338.00;;;33.96;35.92
53689;BME280;39583;54.682;30.662;2022-07-23T16:00:39;99332.59;;;34.11;36.14
53689;BME280;39583;54.682;30.662;2022-07-23T16:03:05;99339.16;;;34.25;35.77
53689;BME280;39583;54.682;30.662;2022-07-23T16:05:31;99331.53;;;34.56;36.01
53689;BME280;39583;54.682;30.662;2022-07-23T16:08:02;99326.19;;;34.81;35.42
53689;BME280;39583;54.682;30.662;2022-07-23T16:10:29;99322.75;;;34.98;34.94
53689;BME280;39583;54.682;30.662;2022-07-23T16:12:55;99329.28;;;35.13;34.82
53689;BME280;39583;54.682;30.662;2022-07-23T16:15:21;99325.78;;;35.27;35.45
53689;BME280;39583;54.682;30.662;2022-07-23T16:17:48;99295.69;;;35.13;35.92
53689;BME280;39583;54.682;30.662;2022-07-23T16:20:14;99317.78;;;35.25;36.10
53689;BME280;39583;54.682;30.662;2022-07-23T16:22:41;99312.97;;;35.22;36.09
53689;BME280;39583;54.682;30.662;2022-07-23T16:25:08;99294.81;;;35.02;36.85
53689;BME280;39583;54.682;30.662;2022-07-23T16:27:35;99293.97;;;34.94;36.80
53689;BME280;39583;54.682;30.662;2022-07-23T16:30:04;99303.84;;;34.84;37.23
53689;BME280;39583;54.682;30.662;2022-07-23T16:32:31;99303.28;;;34.65;38.05
53689;BME280;39583;54.682;30.662;2022-07-23T16:35:00;99302.63;;;34.41;38.55
53689;BME280;39583;54.682;30.662;2022-07-23T16:37:27;99298.41;;;34.24;38.94
53689;BME280;39583;54.682;30.662;2022-07-23T16:39:53;99308.72;;;34.17;39.54
53689;BME280;39583;54.682;30.662;2022-07-23T16:42:19;99312.13;;;33.99;39.92
53689;BME280;39583;54.682;30.662;2022-07-23T16:44:45;99304.63;;;33.77;40.68
53689;BME280;39583;54.682;30.662;2022-07-23T16:47:12;99315.06;;;33.54;41.01
53689;BME280;39583;54.682;30.662;2022-07-23T16:49:38;99317.16;;;32.65;42.14
53689;BME280;39583;54.682;30.662;2022-07-23T16:52:05;99322.13;;;31.59;44.26
53689;BME280;39583;54.682;30.662;2022-07-23T16:54:32;99319.84;;;30.67;46.28
53689;BME280;39583;54.682;30.662;2022-07-23T16:56:58;99322.63;;;29.83;48.10
53689;BME280;39583;54.682;30.662;2022-07-23T16:59:25;99321.88;;;29.09;50.00
53689;BME280;39583;54.682;30.662;2022-07-23T17:01:51;99321.06;;;28.51;51.63
53689;BME280;39583;54.682;30.662;2022-07-23T17:04:17;99331.97;;;28.02;52.62
53689;BME280;39583;54.682;30.662;2022-07-23T17:06:44;99310.53;;;27.49;53.79
53689;BME280;39583;54.682;30.662;2022-07-23T17:09:11;99314.28;;;27.23;54.41
53689;BME280;39583;54.682;30.662;2022-07-23T17:11:37;99308.72;;;26.85;55.65
53689;BME280;39583;54.682;30.662;2022-07-23T17:14:04;99292.63;;;26.32;56.31
53689;BME280;39583;54.682;30.662;2022-07-23T17:16:31;99297.38;;;25.88;57.31
53689;BME280;39583;54.682;30.662;2022-07-23T17:18:58;99309.66;;;25.47;58.47
53689;BME280;39583;54.682;30.662;2022-07-23T17:21:26;99310.38;;;25.05;59.74
53689;BME280;39583;54.682;30.662;2022-07-23T17:23:53;99311.50;;;24.73;60.50
53689;BME280;39583;54.682;30.662;2022-07-23T17:26:19;99306.50;;;24.44;60.98
53689;BME280;39583;54.682;30.662;2022-07-23T17:28:46;99304.34;;;24.18;61.40
53689;BME280;39583;54.682;30.662;2022-07-23T17:31:12;99306.28;;;23.95;62.08
53689;BME280;39583;54.682;30.662;2022-07-23T17:33:38;99308.53;;;23.71;62.53
53689;BME280;39583;54.682;30.662;2022-07-23T17:36:05;99313.13;;;23.48;63.48
53689;BME280;39583;54.682;30.662;2022-07-23T17:38:32;99316.81;;;23.30;63.75
53689;BME280;39583;54.682;30.662;2022-07-23T17:40:58;99309.72;;;23.15;64.14
53689;BME280;39583;54.682;30.662;2022-07-23T17:43:25;99303.53;;;22.95;64.76
53689;BME280;39583;54.682;30.662;2022-07-23T17:45:51;99303.28;;;22.78;65.28
53689;BME280;39583;54.682;30.662;2022-07-23T17:48:18;99300.94;;;22.58;65.67
53689;BME280;39583;54.682;30.662;2022-07-23T17:50:44;99302.84;;;22.44;66.16
53689;BME280;39583;54.682;30.662;2022-07-23T17:53:10;99301.50;;;22.27;66.72
53689;BME280;39583;54.682;30.662;2022-07-23T17:55:37;99289.63;;;22.13;67.10
53689;BME280;39583;54.682;30.662;2022-07-23T17:58:03;99280.00;;;21.97;67.29
53689;BME280;39583;54.682;30.662;2022-07-23T18:00:33;99303.16;;;21.91;67.71
53689;BME280;39583;54.682;30.662;2022-07-23T18:03:00;99306.84;;;21.81;67.98
53689;BME280;39583;54.682;30.662;2022-07-23T18:05:28;99311.16;;;21.68;68.43
53689;BME280;39583;54.682;30.662;2022-07-23T18:07:55;99311.81;;;21.60;68.55
53689;BME280;39583;54.682;30.662;2022-07-23T18:10:22;99312.09;;;21.59;68.74
53689;BME280;39583;54.682;30.662;2022-07-23T18:12:49;99318.09;;;21.61;68.50
53689;BME280;39583;54.682;30.662;2022-07-23T18:15:15;99304.69;;;21.59;68.49
53689;BME280;39583;54.682;30.662;2022-07-23T18:17:42;99318.25;;;21.69;68.33
53689;BME280;39583;54.682;30.662;2022-07-23T18:20:09;99320.50;;;21.67;68.32
53689;BME280;39583;54.682;30.662;2022-07-23T18:22:37;99303.06;;;21.58;68.40
53689;BME280;39583;54.682;30.662;2022-07-23T18:25:05;99316.41;;;21.65;68.53
53689;BME280;39583;54.682;30.662;2022-07-23T18:27:32;99313.97;;;21.63;68.17
53689;BME280;39583;54.682;30.662;2022-07-23T18:29:59;99311.81;;;21.60;68.35
53689;BME280;39583;54.682;30.662;2022-07-23T18:32:26;99309.88;;;21.61;68.32
53689;BME280;39583;54.682;30.662;2022-07-23T18:34:53;99309.66;;;21.57;68.14
53689;BME280;39583;54.682;30.662;2022-07-23T18:37:20;99308.34;;;21.55;68.29
53689;BME280;39583;54.682;30.662;2022-07-23T18:39:46;99304.56;;;21.51;68.37
53689;BME280;39583;54.682;30.662;2022-07-23T18:42:12;99302.50;;;21.42;68.60
53689;BME280;39583;54.682;30.662;2022-07-23T18:44:39;99306.94;;;21.38;68.87
53689;BME280;39583;54.682;30.662;2022-07-23T18:47:05;99309.22;;;21.31;69.02
53689;BME280;39583;54.682;30.662;2022-07-23T18:49:32;99312.75;;;21.32;69.27
53689;BME280;39583;54.682;30.662;2022-07-23T18:52:00;99316.59;;;21.31;69.34
53689;BME280;39583;54.682;30.662;2022-07-23T18:54:27;99309.22;;;21.31;69.24
53689;BME280;39583;54.682;30.662;2022-07-23T18:56:53;99310.31;;;21.30;69.01
53689;BME280;39583;54.682;30.662;2022-07-23T18:59:20;99310.00;;;21.32;69.15
53689;BME280;39583;54.682;30.662;2022-07-23T19:01:46;99311.94;;;21.31;69.11
53689;BME280;39583;54.682;30.662;2022-07-23T19:04:13;99307.56;;;21.30;68.98
53689;BME280;39583;54.682;30.662;2022-07-23T19:06:40;99296.41;;;21.21;69.16
53689;BME280;39583;54.682;30.662;2022-07-23T19:09:06;99326.53;;;21.27;69.15
53689;BME280;39583;54.682;30.662;2022-07-23T19:11:33;99321.06;;;21.27;69.10
53689;BME280;39583;54.682;30.662;2022-07-23T19:13:59;99321.34;;;21.25;69.07
53689;BME280;39583;54.682;30.662;2022-07-23T19:16:26;99313.97;;;21.20;69.31